»·PEaware :: N7MR KBOI-KBXK

N7MR :: KBOI-KBXK

FLIGHT INFORMATION

Flight Status: Arrived
Operator: Privately registered:
United States
More flights under this callsign
Pilot: Gavin B. (19371)
Aircraft: PILATUS PC-12 EAGLE
(PC12)
More flights by this aircraft type
Origin: KBOI Boise Air Terminal/Gowen
United States
Destination: KBXK Buckeye Mun
United States
More flights between these airports :: More routes between these airports
Route: BOI V253 TWF V484 RIDEN V257 PXR V16 ALLIS
File this flight plan on PilotEdge
Remarks:
Altitude:
(Current/Filed)
25,000ft
Speed:
(Current/Filed)
200kts
Departed: 30-Sep-18 06:40 AM
Arrived: 30-Sep-18 09:31 AM
Distance/Time
Traveled:
631nm/2:51
Distance/Time
To Go:
Arrived

Flight Plot

Page will automatically refresh every two minutes.

Flight plan parsing failed; only flown route is shown


Map Options




Map Legend


Flown Route
Filed Route
Departure Airport
Arrival Airport
Navaid (VOR, NDB)
Fix

Horizontal Profiles

Position Reports

Time Latitude Longitude Heading Altitude Ground
Speed
30-Sep-18 06:33 43.567473 -116.221161 24 2846ft 0kts
30-Sep-18 06:34 43.567473 -116.221161 24 2846ft 0kts
30-Sep-18 06:35 43.567473 -116.221161 24 2846ft 0kts
30-Sep-18 06:36 43.567473 -116.221161 24 2846ft 0kts
30-Sep-18 06:37 43.567473 -116.221161 24 2847ft 0kts
30-Sep-18 06:38 43.567473 -116.221161 24 2847ft 0kts
30-Sep-18 06:39 43.567473 -116.221161 24 2847ft 0kts
30-Sep-18 06:40 43.566233 -116.221475 118 2847ft 19kts
30-Sep-18 06:41 43.563223 -116.212905 116 2847ft 23kts
30-Sep-18 06:42 43.567686 -116.229023 294 3007ft 126kts
30-Sep-18 06:43 43.584187 -116.221768 126 4977ft 138kts
30-Sep-18 06:44 43.560222 -116.186331 158 7005ft 132kts
30-Sep-18 06:45 43.530538 -116.154204 134 8719ft 159kts
30-Sep-18 06:46 43.497926 -116.100967 132 9976ft 193kts
30-Sep-18 06:47 43.463514 -116.044904 133 11526ft 197kts
30-Sep-18 06:48 43.428214 -115.987578 133 12986ft 201kts
30-Sep-18 06:49 43.391723 -115.928425 134 14381ft 206kts
30-Sep-18 06:50 43.354547 -115.868283 135 15699ft 210kts
30-Sep-18 06:51 43.316336 -115.806599 135 16950ft 215kts
30-Sep-18 06:52 43.277300 -115.743725 136 18083ft 219kts
30-Sep-18 06:53 43.237421 -115.679513 136 19182ft 223kts
30-Sep-18 06:54 43.197205 -115.614126 137 20215ft 227kts
30-Sep-18 06:55 43.155918 -115.547904 137 21193ft 231kts
30-Sep-18 06:56 43.113802 -115.480680 138 22117ft 234kts
30-Sep-18 06:57 43.071124 -115.412732 138 22992ft 237kts
30-Sep-18 06:58 43.028905 -115.345664 139 23792ft 240kts
30-Sep-18 06:59 42.992998 -115.288805 140 24392ft 243kts
30-Sep-18 07:00 42.940907 -115.206567 141 24908ft 257kts
30-Sep-18 07:01 42.892499 -115.130549 141 24913ft 273kts
30-Sep-18 07:02 42.850535 -115.064481 142 24915ft 280kts
30-Sep-18 07:03 42.790903 -114.970805 142 24915ft 283kts
30-Sep-18 07:04 42.739315 -114.890045 142 24915ft 283kts
30-Sep-18 07:05 42.696122 -114.822615 142 24916ft 283kts
30-Sep-18 07:06 42.636060 -114.729138 142 24927ft 283kts
30-Sep-18 07:07 42.593023 -114.662297 142 24936ft 283kts
30-Sep-18 07:08 42.533258 -114.569728 142 24942ft 284kts
30-Sep-18 07:09 42.490098 -114.503109 142 24943ft 284kts
30-Sep-18 07:10 42.439170 -114.422489 141 24943ft 285kts
30-Sep-18 07:11 42.389122 -114.341998 142 24938ft 285kts
30-Sep-18 07:12 42.338154 -114.260673 142 24934ft 284kts
30-Sep-18 07:13 42.287297 -114.179759 142 24929ft 283kts
30-Sep-18 07:14 42.236442 -114.099040 142 24920ft 283kts
30-Sep-18 07:15 42.185654 -114.018623 142 24911ft 282kts
30-Sep-18 07:16 42.134740 -113.938265 142 24908ft 282kts
30-Sep-18 07:17 42.083790 -113.858063 142 24908ft 282kts
30-Sep-18 07:18 42.032943 -113.778269 142 24909ft 282kts
30-Sep-18 07:19 41.981877 -113.698335 142 24909ft 282kts
30-Sep-18 07:20 41.930847 -113.618668 142 24909ft 282kts
30-Sep-18 07:21 41.881317 -113.541553 142 24919ft 283kts
30-Sep-18 07:22 41.829958 -113.461827 142 24920ft 284kts
30-Sep-18 07:23 41.781658 -113.386997 142 24944ft 284kts
30-Sep-18 07:24 41.729082 -113.305771 142 24938ft 284kts
30-Sep-18 07:25 41.678550 -113.227893 142 24940ft 284kts
30-Sep-18 07:26 41.628720 -113.151331 142 24948ft 284kts
30-Sep-18 07:27 41.575430 -113.069689 142 24961ft 284kts
30-Sep-18 07:28 41.523239 -112.989934 143 24966ft 286kts
30-Sep-18 07:29 41.471832 -112.911590 144 24966ft 280kts
30-Sep-18 07:30 41.420459 -112.833462 144 24966ft 280kts
30-Sep-18 07:31 41.369248 -112.755821 145 24966ft 281kts
30-Sep-18 07:32 41.318712 -112.679378 144 24967ft 281kts
30-Sep-18 07:33 41.267316 -112.601861 144 24967ft 281kts
30-Sep-18 07:34 41.215387 -112.523724 144 24967ft 282kts
30-Sep-18 07:35 41.163569 -112.447500 154 24964ft 270kts
30-Sep-18 07:36 41.100304 -112.424557 188 24970ft 229kts
30-Sep-18 07:37 41.036554 -112.423090 188 24991ft 230kts
30-Sep-18 07:38 40.972476 -112.421727 187 25012ft 232kts
30-Sep-18 07:39 40.907575 -112.420287 187 25019ft 235kts
30-Sep-18 07:40 40.842335 -112.418841 187 25028ft 237kts
30-Sep-18 07:41 40.776734 -112.417365 187 25027ft 238kts
30-Sep-18 07:42 40.710734 -112.415870 187 25027ft 238kts
30-Sep-18 07:43 40.645206 -112.414395 187 25026ft 238kts
30-Sep-18 07:44 40.579447 -112.412919 187 25025ft 237kts
30-Sep-18 07:45 40.513456 -112.411440 187 25025ft 237kts
30-Sep-18 07:46 40.448912 -112.409997 187 25024ft 237kts
30-Sep-18 07:47 40.383531 -112.408541 187 25024ft 237kts
30-Sep-18 07:48 40.320633 -112.411305 191 25023ft 234kts
30-Sep-18 07:49 40.256108 -112.417317 191 25022ft 234kts
30-Sep-18 07:50 40.191441 -112.423318 191 25021ft 234kts
30-Sep-18 07:51 40.126509 -112.429300 191 25021ft 235kts
30-Sep-18 07:52 40.061242 -112.435308 191 25020ft 235kts
30-Sep-18 07:53 39.996190 -112.441283 191 25019ft 235kts
30-Sep-18 07:54 39.931009 -112.447261 191 25008ft 235kts
30-Sep-18 07:55 39.866729 -112.453152 191 25005ft 236kts
30-Sep-18 07:56 39.801262 -112.459146 191 24992ft 237kts
30-Sep-18 07:57 39.735703 -112.465121 191 24981ft 237kts
30-Sep-18 07:58 39.669903 -112.471105 191 24972ft 237kts
30-Sep-18 07:59 39.605752 -112.476931 191 24971ft 236kts
30-Sep-18 08:00 39.540410 -112.482855 191 24971ft 236kts
30-Sep-18 08:01 39.474895 -112.488782 191 24970ft 236kts
30-Sep-18 08:02 39.409446 -112.494692 191 24969ft 236kts
30-Sep-18 08:03 39.344390 -112.500555 191 24968ft 236kts
30-Sep-18 08:04 39.278976 -112.506944 193 24967ft 234kts
30-Sep-18 08:05 39.214378 -112.516091 193 24967ft 234kts
30-Sep-18 08:06 39.149594 -112.524974 193 24970ft 234kts
30-Sep-18 08:07 39.085144 -112.533645 193 24974ft 233kts
30-Sep-18 08:08 39.020650 -112.542304 193 24973ft 233kts
30-Sep-18 08:09 38.956091 -112.550961 192 24968ft 235kts
30-Sep-18 08:10 38.891812 -112.559566 192 24971ft 236kts
30-Sep-18 08:11 38.827182 -112.568206 192 25003ft 238kts
30-Sep-18 08:12 38.761325 -112.576985 192 25047ft 239kts
30-Sep-18 08:13 38.695098 -112.585802 192 25078ft 239kts
30-Sep-18 08:14 38.629067 -112.594579 192 25078ft 240kts
30-Sep-18 08:15 38.562508 -112.603401 192 25077ft 240kts
30-Sep-18 08:16 38.495906 -112.612214 192 25076ft 240kts
30-Sep-18 08:17 38.429437 -112.620993 192 25076ft 240kts
30-Sep-18 08:18 38.362995 -112.629752 192 25075ft 240kts
30-Sep-18 08:19 38.296095 -112.614156 167 25075ft 258kts
30-Sep-18 08:20 38.229841 -112.579662 167 25078ft 258kts
30-Sep-18 08:21 38.163814 -112.545471 167 25164ft 255kts
30-Sep-18 08:22 38.098666 -112.511903 167 25252ft 254kts
30-Sep-18 08:23 38.033174 -112.478241 167 25290ft 255kts
30-Sep-18 08:24 37.968308 -112.444981 167 25289ft 256kts
30-Sep-18 08:25 37.902373 -112.411208 167 25289ft 257kts
30-Sep-18 08:26 37.837339 -112.377987 167 25298ft 259kts
30-Sep-18 08:27 37.772267 -112.344792 167 25291ft 259kts
30-Sep-18 08:28 37.705596 -112.310826 167 25289ft 258kts
30-Sep-18 08:29 37.638030 -112.297868 183 25289ft 245kts
30-Sep-18 08:30 37.570330 -112.291553 183 25288ft 245kts
30-Sep-18 08:31 37.502367 -112.285252 183 25288ft 245kts
30-Sep-18 08:32 37.434619 -112.278965 183 25287ft 245kts
30-Sep-18 08:33 37.366867 -112.272684 183 25286ft 244kts
30-Sep-18 08:34 37.299328 -112.266434 183 25286ft 244kts
30-Sep-18 08:35 37.231913 -112.260218 183 25285ft 243kts
30-Sep-18 08:36 37.164762 -112.254042 183 25285ft 243kts
30-Sep-18 08:37 37.097463 -112.247863 183 25284ft 243kts
30-Sep-18 08:38 37.030281 -112.241708 183 25283ft 243kts
30-Sep-18 08:39 36.962730 -112.235523 183 25283ft 244kts
30-Sep-18 08:40 36.895395 -112.229342 183 25286ft 245kts
30-Sep-18 08:41 36.829086 -112.223279 183 25291ft 246kts
30-Sep-18 08:42 36.761088 -112.217067 183 25290ft 247kts
30-Sep-18 08:43 36.692926 -112.210850 183 25290ft 247kts
30-Sep-18 08:44 36.624575 -112.204626 183 25289ft 247kts
30-Sep-18 08:45 36.556112 -112.198407 183 25289ft 248kts
30-Sep-18 08:46 36.485904 -112.191948 175 25003ft 274kts
30-Sep-18 08:47 36.410244 -112.185059 175 24999ft 282kts
30-Sep-18 08:48 36.332327 -112.178043 174 25000ft 284kts
30-Sep-18 08:49 36.254467 -112.171073 174 25000ft 285kts
30-Sep-18 08:50 36.175691 -112.164014 175 24999ft 285kts
30-Sep-18 08:51 36.097071 -112.156983 175 25001ft 285kts
30-Sep-18 08:52 36.018295 -112.149950 175 25000ft 285kts
30-Sep-18 08:53 35.941816 -112.158577 209 24999ft 286kts
30-Sep-18 08:54 35.877849 -112.205584 210 24998ft 286kts
30-Sep-18 08:55 35.809008 -112.256347 210 24998ft 286kts
30-Sep-18 08:56 35.740450 -112.306744 211 24999ft 286kts
30-Sep-18 08:57 35.671212 -112.357532 211 24999ft 286kts
30-Sep-18 08:58 35.603316 -112.407237 210 24999ft 285kts
30-Sep-18 08:59 35.528142 -112.427764 184 25000ft 286kts
30-Sep-18 09:00 35.448880 -112.434894 183 24999ft 286kts
30-Sep-18 09:01 35.369796 -112.439657 178 25000ft 285kts
30-Sep-18 09:02 35.290646 -112.440805 183 25000ft 286kts
30-Sep-18 09:03 35.211402 -112.446461 182 25000ft 286kts
30-Sep-18 09:04 35.131966 -112.451695 182 25000ft 286kts
30-Sep-18 09:05 35.052752 -112.456785 182 25001ft 285kts
30-Sep-18 09:06 34.973556 -112.461863 182 25000ft 286kts
30-Sep-18 09:07 34.896233 -112.466812 182 25001ft 286kts
30-Sep-18 09:08 34.823996 -112.471407 182 24999ft 286kts
30-Sep-18 09:09 34.744827 -112.476436 182 24998ft 285kts
30-Sep-18 09:10 34.673241 -112.450005 139 25003ft 282kts
30-Sep-18 09:11 34.622372 -112.400235 139 24885ft 286kts
30-Sep-18 09:12 34.545807 -112.325484 140 23138ft 310kts
30-Sep-18 09:13 34.493576 -112.275657 140 21554ft 270kts
30-Sep-18 09:14 34.419663 -112.222170 166 19236ft 290kts
30-Sep-18 09:15 34.353116 -112.204957 167 17579ft 296kts
30-Sep-18 09:16 34.260872 -112.181360 166 15264ft 290kts
30-Sep-18 09:17 34.195647 -112.164513 166 13601ft 287kts
30-Sep-18 09:18 34.118603 -112.144638 166 11611ft 283kts
30-Sep-18 09:19 34.043889 -112.125477 166 9820ft 266kts
30-Sep-18 09:20 33.978263 -112.109849 185 9772ft 225kts
30-Sep-18 09:21 33.935836 -112.161134 241 9786ft 241kts
30-Sep-18 09:22 33.900082 -112.233383 230 9785ft 263kts
30-Sep-18 09:23 33.853848 -112.298991 230 9762ft 268kts
30-Sep-18 09:24 33.807672 -112.364819 230 7553ft 239kts
30-Sep-18 09:25 33.767069 -112.422423 229 6287ft 232kts
30-Sep-18 09:26 33.723252 -112.484501 230 6280ft 256kts
30-Sep-18 09:27 33.679158 -112.547029 230 6280ft 259kts
30-Sep-18 09:28 33.634906 -112.609992 230 6280ft 260kts
30-Sep-18 09:29 33.590597 -112.673028 229 6279ft 260kts
30-Sep-18 09:30 33.532942 -112.710982 180 6279ft 259kts
30-Sep-18 09:31 33.465777 -112.711481 149 3924ft 236kts
30-Sep-18 09:32 33.433215 -112.685868 179 1130ft 107kts
30-Sep-18 09:33 33.420843 -112.685465 91 1007ft 5kts
30-Sep-18 09:34 33.420800 -112.683482 94 1011ft 0kts

Navigation Log

Ident Type
Flight plan parsing failed, navigation log unavailable